createdAt,value
2023-05-04T00:02:20.207Z,25.70
2023-05-04T00:04:47.226Z,25.52
2023-05-04T00:07:13.868Z,25.67
2023-05-04T00:09:40.472Z,24.98
2023-05-04T00:12:07.941Z,25.80
2023-05-04T00:14:34.980Z,26.42
2023-05-04T00:17:04.776Z,27.20
2023-05-04T00:19:31.414Z,26.42
2023-05-04T00:21:58.039Z,26.45
2023-05-04T00:24:24.632Z,27.48
2023-05-04T00:26:51.225Z,26.25
2023-05-04T00:29:17.855Z,28.08
2023-05-04T00:31:44.526Z,26.50
2023-05-04T00:34:11.838Z,27.50
2023-05-04T00:36:38.550Z,28.00
2023-05-04T00:39:05.805Z,27.08
2023-05-04T00:41:32.432Z,27.75
2023-05-04T00:43:59.703Z,27.23
2023-05-04T00:46:26.946Z,26.88
2023-05-04T00:48:54.182Z,27.50
2023-05-04T00:51:23.162Z,26.40
2023-05-04T00:53:50.565Z,27.58
2023-05-04T00:56:18.831Z,27.33
2023-05-04T00:58:45.974Z,25.90
2023-05-04T01:01:12.973Z,27.55
2023-05-04T01:03:40.013Z,26.95
2023-05-04T01:06:18.403Z,28.48
2023-05-04T01:08:57.725Z,27.90
2023-05-04T01:11:35.035Z,27.15
2023-05-04T01:14:02.088Z,27.33
2023-05-04T01:16:29.652Z,27.52
2023-05-04T01:18:56.445Z,26.92
2023-05-04T01:21:23.035Z,27.00
2023-05-04T01:23:50.451Z,28.48
2023-05-04T01:26:27.240Z,28.30
2023-05-04T01:29:02.416Z,27.05
2023-05-04T01:31:29.966Z,28.15
2023-05-04T01:33:57.433Z,29.15
2023-05-04T01:36:24.479Z,28.25
2023-05-04T01:38:55.262Z,27.30
2023-05-04T01:41:21.935Z,28.48
2023-05-04T01:43:48.833Z,28.42
2023-05-04T01:46:16.028Z,28.52
2023-05-04T01:48:42.864Z,30.13
2023-05-04T01:51:09.496Z,28.20
2023-05-04T01:53:36.234Z,28.15
2023-05-04T01:56:03.107Z,28.13
2023-05-04T01:58:29.849Z,28.27
2023-05-04T02:00:59.040Z,28.88
2023-05-04T02:03:26.251Z,28.45
2023-05-04T02:05:53.541Z,28.98
2023-05-04T02:08:20.282Z,29.65
2023-05-04T02:10:47.822Z,28.85
2023-05-04T02:13:14.602Z,27.67
2023-05-04T02:15:41.445Z,30.85
2023-05-04T02:18:08.380Z,28.98
2023-05-04T02:20:35.302Z,28.30
2023-05-04T02:23:03.041Z,29.73
2023-05-04T02:25:30.470Z,28.75
2023-05-04T02:27:57.042Z,29.77
2023-05-04T02:30:23.758Z,30.92
2023-05-04T02:32:50.550Z,31.25
2023-05-04T02:35:17.194Z,31.55
2023-05-04T02:37:44.330Z,30.30
2023-05-04T02:40:11.679Z,30.73
2023-05-04T02:42:38.265Z,30.33
2023-05-04T02:45:07.314Z,31.05
2023-05-04T02:47:33.987Z,31.42
2023-05-04T02:50:01.332Z,30.63
2023-05-04T02:52:28.096Z,30.40
2023-05-04T02:54:54.801Z,30.17
2023-05-04T02:57:21.510Z,30.10
2023-05-04T02:59:48.097Z,30.23
2023-05-04T03:02:14.747Z,29.88
2023-05-04T03:04:41.502Z,29.00
2023-05-04T03:07:09.333Z,29.52
2023-05-04T03:09:36.205Z,30.23
2023-05-04T03:12:04.225Z,30.05
2023-05-04T03:14:31.467Z,29.35
2023-05-04T03:16:58.550Z,29.23
2023-05-04T03:19:25.997Z,29.15
2023-05-04T03:21:52.680Z,29.25
2023-05-04T03:24:19.423Z,28.70
2023-05-04T03:26:47.596Z,27.98
2023-05-04T03:29:14.721Z,29.17
2023-05-04T03:31:41.797Z,28.80
2023-05-04T03:34:12.565Z,29.67
2023-05-04T03:36:39.194Z,28.27
2023-05-04T03:39:05.880Z,28.20
2023-05-04T03:41:32.524Z,29.42
2023-05-04T03:43:59.431Z,29.30
2023-05-04T03:46:30.019Z,28.77
2023-05-04T03:48:57.355Z,28.83
2023-05-04T03:51:25.006Z,28.40
2023-05-04T03:53:51.639Z,28.90
2023-05-04T03:56:18.640Z,28.42
2023-05-04T03:58:46.249Z,27.38
2023-05-04T04:01:14.753Z,32.83
2023-05-04T04:03:41.521Z,30.60
2023-05-04T04:06:09.620Z,30.85
2023-05-04T04:08:37.374Z,31.00
2023-05-04T04:11:04.036Z,31.83
2023-05-04T04:13:30.713Z,31.85
2023-05-04T04:15:57.379Z,31.15
2023-05-04T04:18:24.514Z,32.03
2023-05-04T04:20:51.592Z,34.40
2023-05-04T04:23:19.176Z,35.50
2023-05-04T04:25:46.661Z,32.90
2023-05-04T04:28:16.905Z,33.83
2023-05-04T04:30:43.594Z,33.30
2023-05-04T04:33:10.429Z,31.85
2023-05-04T04:35:37.266Z,33.63
2023-05-04T04:38:04.188Z,32.92
2023-05-04T04:40:31.075Z,33.50
2023-05-04T04:42:57.713Z,33.90
2023-05-04T04:45:24.585Z,32.15
2023-05-04T04:48:00.892Z,34.22
2023-05-04T04:50:28.973Z,33.78
2023-05-04T04:52:55.984Z,34.55
2023-05-04T04:55:25.659Z,32.67
2023-05-04T04:57:52.880Z,32.00
2023-05-04T05:00:19.645Z,33.95
2023-05-04T05:02:46.333Z,34.10
2023-05-04T05:05:13.060Z,33.92
2023-05-04T05:07:39.717Z,34.88
2023-05-04T05:10:08.354Z,33.97
2023-05-04T05:12:35.193Z,34.88
2023-05-04T05:15:04.184Z,36.13
2023-05-04T05:17:31.289Z,35.00
2023-05-04T05:19:57.940Z,34.35
2023-05-04T05:22:24.928Z,34.10
2023-05-04T05:24:51.733Z,34.75
2023-05-04T05:27:18.514Z,33.72
2023-05-04T05:29:45.505Z,33.85
2023-05-04T05:32:12.187Z,34.92
2023-05-04T05:34:38.990Z,34.22
2023-05-04T05:37:05.731Z,33.60
2023-05-04T05:39:32.344Z,33.80
2023-05-04T05:41:59.176Z,35.50
2023-05-04T05:44:25.761Z,35.53
2023-05-04T05:46:52.371Z,34.00
2023-05-04T05:49:19.372Z,34.53
2023-05-04T05:51:46.042Z,34.75
2023-05-04T05:54:12.756Z,34.65
2023-05-04T05:56:39.415Z,33.80
2023-05-04T05:59:06.308Z,34.17
2023-05-04T06:01:33.308Z,34.40
2023-05-04T06:04:00.333Z,34.17
2023-05-04T06:06:27.185Z,32.83
2023-05-04T06:08:53.867Z,33.53
2023-05-04T06:11:21.364Z,34.90
2023-05-04T06:13:47.983Z,34.75
2023-05-04T06:16:14.733Z,34.00
2023-05-04T06:18:41.493Z,34.00
2023-05-04T06:21:08.726Z,33.70
2023-05-04T06:23:35.401Z,34.10
2023-05-04T06:26:02.570Z,34.55
2023-05-04T06:28:29.181Z,33.42
2023-05-04T06:30:55.796Z,33.60
2023-05-04T06:33:22.751Z,35.25
2023-05-04T06:35:49.460Z,34.25
2023-05-04T06:38:16.072Z,35.63
2023-05-04T06:40:42.808Z,35.38
2023-05-04T06:43:09.737Z,35.72
2023-05-04T06:45:36.765Z,35.45
2023-05-04T06:48:04.083Z,35.38
2023-05-04T06:50:31.496Z,37.70
2023-05-04T06:53:09.753Z,37.55
2023-05-04T06:55:42.591Z,38.80
2023-05-04T06:58:09.204Z,37.88
2023-05-04T07:00:36.088Z,38.42
2023-05-04T07:03:02.834Z,35.83
2023-05-04T07:05:29.628Z,37.28
2023-05-04T07:07:58.667Z,39.30
2023-05-04T07:10:25.393Z,37.78
2023-05-04T07:12:52.021Z,37.88
2023-05-04T07:15:18.736Z,37.75
2023-05-04T07:17:46.699Z,36.47
2023-05-04T07:20:15.273Z,38.70
2023-05-04T07:22:41.966Z,39.83
2023-05-04T07:25:08.917Z,40.13
2023-05-04T07:27:35.767Z,40.80
2023-05-04T07:30:03.438Z,40.95
2023-05-04T07:32:30.181Z,40.22
2023-05-04T07:34:56.792Z,37.90
2023-05-04T07:37:23.496Z,40.88
2023-05-04T07:39:50.160Z,40.58
2023-05-04T07:42:16.763Z,44.00
2023-05-04T07:44:43.443Z,43.72
2023-05-04T07:47:10.576Z,41.30
2023-05-04T07:49:37.208Z,40.90
2023-05-04T07:52:04.635Z,41.47
2023-05-04T07:54:31.360Z,43.05
2023-05-04T07:56:57.994Z,44.08
2023-05-04T07:59:24.755Z,44.72
2023-05-04T08:01:51.511Z,45.30
2023-05-04T08:04:18.156Z,43.03
2023-05-04T08:06:45.323Z,44.13
2023-05-04T08:09:12.389Z,45.05
2023-05-04T08:11:42.260Z,45.08
2023-05-04T08:14:09.002Z,44.55
2023-05-04T08:16:36.107Z,45.08
2023-05-04T08:19:02.836Z,45.25
2023-05-04T08:21:29.498Z,45.72
2023-05-04T08:23:56.109Z,47.70
2023-05-04T08:26:23.574Z,46.38
2023-05-04T08:28:50.437Z,46.88
2023-05-04T08:31:18.491Z,47.08
2023-05-04T08:33:48.439Z,43.53
2023-05-04T08:36:15.465Z,49.22
2023-05-04T08:38:42.292Z,46.03
2023-05-04T08:41:10.870Z,45.63
2023-05-04T08:43:37.468Z,48.58
2023-05-04T08:46:05.900Z,47.78
2023-05-04T08:48:35.519Z,46.60
2023-05-04T08:51:04.171Z,45.78
2023-05-04T08:53:32.525Z,46.47
2023-05-04T08:56:04.031Z,45.95
2023-05-04T08:58:31.945Z,45.78
2023-05-04T09:01:01.053Z,45.42
2023-05-04T09:03:29.641Z,47.03
2023-05-04T09:05:57.730Z,46.88
2023-05-04T09:08:24.525Z,46.63
2023-05-04T09:10:51.336Z,47.10
2023-05-04T09:13:18.177Z,50.50
2023-05-04T09:15:57.282Z,46.75
2023-05-04T09:18:24.390Z,47.10
2023-05-04T09:20:51.140Z,48.33
2023-05-04T09:23:18.314Z,49.17
2023-05-04T09:25:52.905Z,48.63
2023-05-04T09:28:33.285Z,47.33
2023-05-04T09:31:01.083Z,48.35
2023-05-04T09:33:28.841Z,48.22
2023-05-04T09:35:57.120Z,46.38
2023-05-04T09:38:28.284Z,50.00
2023-05-04T09:40:55.823Z,48.30
2023-05-04T09:43:24.252Z,47.53
2023-05-04T09:45:51.403Z,48.00
2023-05-04T09:48:25.674Z,47.00
2023-05-04T09:51:00.684Z,48.35
2023-05-04T09:53:29.453Z,48.20
2023-05-04T09:56:00.697Z,47.42
2023-05-04T09:58:30.631Z,46.65
2023-05-04T10:01:00.766Z,46.83
2023-05-04T10:03:28.117Z,48.47
2023-05-04T10:05:54.996Z,51.08
2023-05-04T10:08:23.460Z,50.20
2023-05-04T10:10:51.200Z,50.88
2023-05-04T10:13:18.038Z,48.35
2023-05-04T10:16:06.562Z,46.75
2023-05-04T10:19:10.597Z,48.28
2023-05-04T10:21:55.733Z,49.08
2023-05-04T10:24:45.427Z,48.60
2023-05-04T10:27:15.556Z,49.47
2023-05-04T10:29:42.934Z,51.42
2023-05-04T10:32:22.889Z,51.20
2023-05-04T10:34:50.869Z,48.55
2023-05-04T10:37:22.097Z,49.88
2023-05-04T10:39:55.975Z,49.70
2023-05-04T10:42:22.779Z,52.25
2023-05-04T10:44:54.936Z,51.60
2023-05-04T10:47:35.513Z,50.72
2023-05-04T10:50:15.226Z,53.00
2023-05-04T10:52:50.231Z,52.78
2023-05-04T10:57:51.718Z,50.40
2023-05-04T11:00:19.734Z,50.75
2023-05-04T11:02:47.585Z,49.17
2023-05-04T11:05:19.827Z,48.58
2023-05-04T11:07:50.528Z,51.20
2023-05-04T11:10:26.603Z,48.35
2023-05-04T11:12:55.368Z,48.85
2023-05-04T11:15:22.285Z,50.72
2023-05-04T11:17:52.860Z,52.05
2023-05-04T11:20:24.361Z,51.92
2023-05-04T11:22:51.772Z,50.20
2023-05-04T11:25:30.114Z,49.75
2023-05-04T11:27:58.886Z,49.42
2023-05-04T11:30:33.614Z,49.67
2023-05-04T11:33:01.424Z,53.00
2023-05-04T11:35:28.339Z,51.08
2023-05-04T11:37:56.419Z,52.58
2023-05-04T11:40:25.218Z,51.40
2023-05-04T11:42:55.372Z,51.15
2023-05-04T11:45:28.367Z,50.63
2023-05-04T11:47:56.558Z,50.78
2023-05-04T11:50:25.055Z,50.75
2023-05-04T11:52:51.864Z,50.33
2023-05-04T11:55:30.235Z,51.33
2023-05-04T11:58:01.315Z,50.00
2023-05-04T12:00:43.022Z,50.88
2023-05-04T12:03:29.960Z,51.72
2023-05-04T12:06:02.905Z,52.45
2023-05-04T12:08:34.937Z,54.70
2023-05-04T12:11:16.324Z,53.65
2023-05-04T12:13:47.338Z,53.10
2023-05-04T12:16:15.965Z,51.88
2023-05-04T12:18:44.150Z,50.95
2023-05-04T12:21:14.989Z,51.90
2023-05-04T12:23:42.298Z,54.45
2023-05-04T12:26:10.434Z,52.05
2023-05-04T12:28:38.053Z,55.08
2023-05-04T12:31:06.810Z,54.70
2023-05-04T12:33:34.803Z,50.97
2023-05-04T12:36:02.237Z,53.30
2023-05-04T12:38:29.438Z,53.50
2023-05-04T12:41:03.118Z,54.20
2023-05-04T12:43:30.967Z,53.45
2023-05-04T12:45:57.703Z,54.45
2023-05-04T12:48:26.478Z,55.30
2023-05-04T12:50:53.176Z,54.65
2023-05-04T12:53:22.141Z,54.15
2023-05-04T12:55:48.853Z,52.45
2023-05-04T12:58:15.476Z,51.67
2023-05-04T13:00:45.749Z,52.58
2023-05-04T13:03:13.196Z,53.08
2023-05-04T13:05:40.214Z,53.55
2023-05-04T13:08:07.231Z,54.63
2023-05-04T13:10:33.912Z,55.20
2023-05-04T13:13:00.933Z,54.00
2023-05-04T13:15:27.991Z,52.80
2023-05-04T13:17:55.017Z,53.33
2023-05-04T13:20:22.507Z,50.63
2023-05-04T13:22:50.416Z,53.70
2023-05-04T13:25:17.050Z,56.08
2023-05-04T13:27:43.845Z,51.08
2023-05-04T13:30:11.363Z,53.25
2023-05-04T13:32:38.061Z,52.30
2023-05-04T13:35:05.372Z,54.72
2023-05-04T13:37:32.080Z,52.35
2023-05-04T13:39:59.421Z,51.92
2023-05-04T13:42:26.115Z,54.88
2023-05-04T13:44:52.846Z,54.20
2023-05-04T13:47:19.430Z,54.78
2023-05-04T13:49:46.500Z,52.65
2023-05-04T13:52:13.437Z,53.65
2023-05-04T13:54:40.120Z,54.55
2023-05-04T13:57:07.161Z,52.88
2023-05-04T13:59:34.092Z,53.60
2023-05-04T14:02:01.226Z,52.55
2023-05-04T14:04:27.993Z,49.63
2023-05-04T14:06:54.881Z,49.22
2023-05-04T14:09:21.805Z,50.00
2023-05-04T14:11:48.434Z,50.00
2023-05-04T14:14:15.173Z,52.15
2023-05-04T14:16:41.882Z,50.95
2023-05-04T14:19:08.549Z,52.00
2023-05-04T14:21:35.860Z,51.28
2023-05-04T14:24:03.315Z,52.85
2023-05-04T14:26:31.695Z,51.90
2023-05-04T14:28:58.884Z,53.15
2023-05-04T14:31:25.582Z,52.38
2023-05-04T14:33:53.305Z,55.17
2023-05-04T14:36:21.312Z,53.45
2023-05-04T14:38:48.121Z,53.70
2023-05-04T14:41:15.226Z,52.40
2023-05-04T14:43:42.148Z,53.75
2023-05-04T14:46:09.392Z,53.05
2023-05-04T14:48:36.187Z,52.25
2023-05-04T14:51:03.395Z,53.10
2023-05-04T14:53:33.962Z,53.83
2023-05-04T14:56:01.484Z,54.17
2023-05-04T14:58:28.778Z,51.25
2023-05-04T15:00:55.448Z,53.15
2023-05-04T15:03:22.342Z,51.75
2023-05-04T15:05:49.239Z,51.55
2023-05-04T15:08:15.900Z,48.88
2023-05-04T15:10:42.521Z,49.95
2023-05-04T15:13:09.243Z,49.08
2023-05-04T15:15:39.853Z,51.40
2023-05-04T15:18:06.741Z,50.33
2023-05-04T15:20:35.727Z,49.55
2023-05-04T15:23:04.914Z,48.42
2023-05-04T15:25:31.529Z,49.90
2023-05-04T15:27:58.111Z,50.05
2023-05-04T15:30:24.724Z,52.38
2023-05-04T15:32:51.525Z,52.15
2023-05-04T15:35:18.550Z,49.50
2023-05-04T15:37:45.232Z,51.08
2023-05-04T15:40:12.724Z,49.30
2023-05-04T15:42:39.364Z,50.90
2023-05-04T15:45:08.127Z,50.28
2023-05-04T15:47:35.448Z,49.13
2023-05-04T15:50:02.879Z,49.42
2023-05-04T15:52:31.332Z,49.88
2023-05-04T15:55:04.254Z,49.63
2023-05-04T15:57:39.492Z,49.10
2023-05-04T16:00:07.311Z,49.80
2023-05-04T16:02:34.717Z,50.20
2023-05-04T16:05:01.477Z,47.33
2023-05-04T16:07:28.096Z,48.05
2023-05-04T16:09:54.969Z,49.03
2023-05-04T16:12:21.918Z,50.67
2023-05-04T16:14:48.673Z,48.85
2023-05-04T16:17:16.357Z,48.45
2023-05-04T16:19:43.382Z,51.53
2023-05-04T16:22:10.188Z,49.70
2023-05-04T16:24:36.761Z,42.47
2023-05-04T16:27:03.572Z,49.45
2023-05-04T16:29:30.243Z,51.45
2023-05-04T16:31:56.919Z,48.88
2023-05-04T16:34:23.509Z,52.53
2023-05-04T16:36:50.293Z,50.67
2023-05-04T16:39:18.988Z,50.85
2023-05-04T16:41:48.147Z,50.45
2023-05-04T16:44:15.194Z,51.47
2023-05-04T16:46:41.926Z,52.28
2023-05-04T16:49:10.462Z,54.05
2023-05-04T16:51:40.385Z,53.80
2023-05-04T16:54:07.013Z,54.65
2023-05-04T16:56:34.201Z,53.83
2023-05-04T16:59:00.928Z,51.67
2023-05-04T17:01:27.587Z,49.88
2023-05-04T17:03:54.521Z,50.83
2023-05-04T17:06:21.352Z,48.22
2023-05-04T17:08:48.005Z,51.50
2023-05-04T17:11:14.665Z,49.17
2023-05-04T17:13:41.406Z,50.08
2023-05-04T17:16:09.751Z,48.90
2023-05-04T17:18:36.708Z,50.65
2023-05-04T17:21:03.413Z,55.58
2023-05-04T17:23:30.089Z,58.33
2023-05-04T17:25:56.907Z,56.85
2023-05-04T17:28:23.705Z,50.58
2023-05-04T17:30:50.399Z,51.15
2023-05-04T17:33:17.134Z,45.42
2023-05-04T17:35:43.778Z,46.75
2023-05-04T17:38:10.910Z,45.97
2023-05-04T17:40:37.759Z,48.97
2023-05-04T17:43:04.391Z,46.83
2023-05-04T17:45:31.028Z,44.10
2023-05-04T17:47:57.730Z,43.78
2023-05-04T17:50:25.415Z,42.55
2023-05-04T17:52:55.976Z,40.47
2023-05-04T17:55:25.627Z,40.13
2023-05-04T17:57:54.136Z,39.38
2023-05-04T18:00:21.242Z,40.65
2023-05-04T18:02:47.989Z,39.42
2023-05-04T18:05:14.780Z,38.33
2023-05-04T18:07:41.398Z,39.42
2023-05-04T18:10:08.486Z,38.25
2023-05-04T18:12:38.026Z,38.63
2023-05-04T18:15:08.809Z,39.10
2023-05-04T18:17:37.769Z,38.97
2023-05-04T18:20:07.235Z,38.83
2023-05-04T18:22:34.346Z,39.85
2023-05-04T18:25:01.399Z,41.00
2023-05-04T18:27:34.762Z,42.05
2023-05-04T18:30:03.016Z,42.47
2023-05-04T18:32:29.824Z,41.85
2023-05-04T18:34:57.855Z,40.83
2023-05-04T18:37:25.502Z,41.30
2023-05-04T18:39:52.495Z,27.75
2023-05-04T18:42:19.156Z,26.40
2023-05-04T18:44:45.866Z,29.02
2023-05-04T18:47:12.743Z,27.02
2023-05-04T18:49:39.462Z,27.20
2023-05-04T18:52:06.103Z,26.75
2023-05-04T18:54:33.077Z,27.17
2023-05-04T18:56:59.733Z,27.17
2023-05-04T18:59:26.835Z,27.15
2023-05-04T19:01:56.217Z,27.33
2023-05-04T19:04:22.837Z,28.38
2023-05-04T19:06:51.668Z,27.13
2023-05-04T19:09:18.668Z,31.85
2023-05-04T19:11:46.601Z,26.48
2023-05-04T19:14:13.506Z,28.23
2023-05-04T19:16:40.459Z,27.08
2023-05-04T19:19:07.429Z,27.70
2023-05-04T19:21:34.162Z,27.80
2023-05-04T19:24:00.911Z,27.77
2023-05-04T19:26:28.259Z,27.30
2023-05-04T19:28:54.916Z,28.13
2023-05-04T19:31:21.537Z,27.75
2023-05-04T19:33:49.425Z,27.25
2023-05-04T19:36:16.905Z,28.13
2023-05-04T19:38:43.797Z,28.27
2023-05-04T19:41:10.500Z,27.38
2023-05-04T19:43:38.652Z,28.20
2023-05-04T19:46:05.421Z,28.10
2023-05-04T19:48:32.725Z,27.50
2023-05-04T19:50:59.453Z,27.73
2023-05-04T19:53:26.135Z,28.17
2023-05-04T19:55:52.873Z,26.73
2023-05-04T19:58:20.087Z,28.05
2023-05-04T20:00:47.395Z,27.90
2023-05-04T20:03:14.093Z,27.20
2023-05-04T20:05:40.785Z,27.90
2023-05-04T20:08:07.392Z,28.45
2023-05-04T20:10:34.085Z,27.35
2023-05-04T20:13:01.155Z,28.40
2023-05-04T20:15:28.097Z,28.05
2023-05-04T20:17:54.787Z,27.15
2023-05-04T20:20:22.480Z,26.90
2023-05-04T20:22:51.970Z,28.63
2023-05-04T20:25:19.703Z,28.05
2023-05-04T20:27:48.302Z,28.77
2023-05-04T20:30:15.219Z,28.00
2023-05-04T20:32:42.615Z,27.88
2023-05-04T20:35:09.569Z,28.95
2023-05-04T20:37:36.367Z,28.67
2023-05-04T20:40:03.043Z,28.33
2023-05-04T20:42:29.831Z,27.52
2023-05-04T20:44:56.409Z,28.92
2023-05-04T20:47:23.180Z,28.63
2023-05-04T20:49:49.879Z,28.48
2023-05-04T20:52:16.517Z,28.10
2023-05-04T20:54:43.171Z,29.27
2023-05-04T20:57:09.891Z,29.08
2023-05-04T20:59:36.623Z,28.13
2023-05-04T21:02:03.350Z,29.25
2023-05-04T21:04:30.081Z,35.92
2023-05-04T21:06:57.481Z,29.52
2023-05-04T21:09:24.374Z,30.95
2023-05-04T21:11:51.006Z,30.98
2023-05-04T21:14:17.601Z,28.65
2023-05-04T21:16:44.307Z,27.77
2023-05-04T21:19:10.934Z,28.38
2023-05-04T21:21:40.703Z,28.55
2023-05-04T21:24:13.782Z,28.70
2023-05-04T21:26:41.151Z,28.35
2023-05-04T21:29:14.954Z,29.23
2023-05-04T21:31:42.010Z,29.38
2023-05-04T21:34:08.906Z,28.67
2023-05-04T21:36:35.807Z,28.63
2023-05-04T21:39:02.444Z,30.05
2023-05-04T21:41:29.976Z,29.63
2023-05-04T21:43:56.672Z,29.50
2023-05-04T21:46:23.378Z,29.08
2023-05-04T21:48:51.616Z,28.85
2023-05-04T21:51:20.677Z,29.15
2023-05-04T21:53:47.834Z,28.17
2023-05-04T21:56:14.514Z,28.40
2023-05-04T21:58:41.843Z,29.52
2023-05-04T22:01:09.307Z,28.00
2023-05-04T22:03:36.908Z,28.90
2023-05-04T22:06:03.940Z,28.77
2023-05-04T22:08:30.635Z,28.65
2023-05-04T22:10:58.485Z,29.20
2023-05-04T22:13:25.740Z,28.55
2023-05-04T22:15:53.326Z,28.20
2023-05-04T22:18:20.568Z,28.20
2023-05-04T22:20:47.553Z,30.85
2023-05-04T22:23:14.678Z,27.70
2023-05-04T22:25:41.627Z,28.48
2023-05-04T22:28:08.254Z,28.27
2023-05-04T22:30:34.964Z,28.17
2023-05-04T22:33:01.905Z,28.02
2023-05-04T22:35:31.098Z,28.38
2023-05-04T22:37:57.811Z,28.70
2023-05-04T22:40:24.624Z,28.63
2023-05-04T22:42:51.346Z,28.55
2023-05-04T22:45:18.081Z,29.20
2023-05-04T22:47:46.158Z,28.98
2023-05-04T22:50:13.500Z,27.90
2023-05-04T22:52:41.261Z,27.88
2023-05-04T22:55:08.796Z,28.33
2023-05-04T22:57:35.831Z,29.08
2023-05-04T23:00:04.717Z,28.35
2023-05-04T23:02:31.473Z,28.92
2023-05-04T23:04:58.179Z,28.17
2023-05-04T23:07:25.057Z,28.80
2023-05-04T23:09:51.740Z,28.63
2023-05-04T23:12:18.451Z,28.40
2023-05-04T23:14:45.043Z,28.88
2023-05-04T23:17:11.678Z,28.33
2023-05-04T23:19:38.270Z,28.20
2023-05-04T23:22:04.871Z,28.23
2023-05-04T23:24:31.972Z,27.30
2023-05-04T23:26:59.045Z,28.88
2023-05-04T23:29:25.753Z,28.30
2023-05-04T23:31:53.486Z,28.92
2023-05-04T23:34:20.317Z,27.75
2023-05-04T23:36:46.911Z,28.80
2023-05-04T23:39:13.559Z,29.35
2023-05-04T23:41:40.174Z,29.15
2023-05-04T23:44:07.063Z,28.02
2023-05-04T23:46:33.665Z,28.40
2023-05-04T23:49:00.292Z,29.50
2023-05-04T23:51:28.386Z,28.60
2023-05-04T23:53:55.604Z,28.25
2023-05-04T23:56:22.484Z,28.60
2023-05-04T23:58:49.137Z,28.40
